createdAt,value
2022-10-18T00:02:00.814Z,11.98
2022-10-18T00:04:27.208Z,13.32
2022-10-18T00:06:53.551Z,11.65
2022-10-18T00:09:19.999Z,11.13
2022-10-18T00:11:46.354Z,15.10
2022-10-18T00:14:12.752Z,19.00
2022-10-18T00:16:39.109Z,13.73
2022-10-18T00:19:05.536Z,10.70
2022-10-18T00:21:32.250Z,9.65
2022-10-18T00:23:58.611Z,13.18
2022-10-18T00:26:27.796Z,14.55
2022-10-18T00:28:57.032Z,10.60
2022-10-18T00:31:28.954Z,11.88
2022-10-18T00:34:04.265Z,13.95
2022-10-18T00:36:34.095Z,10.85
2022-10-18T00:39:01.851Z,13.15
2022-10-18T00:41:31.617Z,10.50
2022-10-18T00:44:27.777Z,13.77
2022-10-18T00:46:59.495Z,11.90
2022-10-18T00:49:32.046Z,14.90
2022-10-18T00:52:05.045Z,12.27
2022-10-18T00:54:33.705Z,10.10
2022-10-18T00:57:00.705Z,12.82
2022-10-18T00:59:27.941Z,9.15
2022-10-18T01:01:54.457Z,15.63
2022-10-18T01:04:21.410Z,11.90
2022-10-18T01:09:42.459Z,10.23
2022-10-18T01:12:33.175Z,11.45
2022-10-18T01:15:23.965Z,11.93
2022-10-18T01:18:27.413Z,10.45
2022-10-18T01:21:10.723Z,15.25
2022-10-18T01:23:54.017Z,16.63
2022-10-18T01:26:39.662Z,16.08
2022-10-18T01:29:14.588Z,11.85
2022-10-18T01:31:47.911Z,16.25
2022-10-18T01:34:17.903Z,10.55
2022-10-18T01:36:48.453Z,18.85
2022-10-18T01:39:19.805Z,13.23
2022-10-18T01:41:49.099Z,13.98
2022-10-18T01:44:21.412Z,12.68
2022-10-18T01:46:48.681Z,11.35
2022-10-18T01:49:15.048Z,14.32
2022-10-18T01:51:41.430Z,14.88
2022-10-18T01:54:10.036Z,18.25
2022-10-18T01:57:01.794Z,14.32
2022-10-18T01:59:33.758Z,18.08
2022-10-18T02:02:40.393Z,17.85
2022-10-18T02:05:32.889Z,16.00
2022-10-18T02:08:35.344Z,17.90
2022-10-18T02:11:07.820Z,12.65
2022-10-18T02:13:41.828Z,15.02
2022-10-18T02:16:12.851Z,18.70
2022-10-18T02:18:49.342Z,21.23
2022-10-18T02:21:19.204Z,20.92
2022-10-18T02:23:46.813Z,19.48
2022-10-18T02:26:14.585Z,22.30
2022-10-18T02:28:41.332Z,19.33
2022-10-18T02:31:34.001Z,20.13
2022-10-18T02:34:23.898Z,19.00
2022-10-18T02:37:01.088Z,18.27
2022-10-18T02:39:32.032Z,18.05
2022-10-18T02:41:59.636Z,16.60
2022-10-18T02:44:26.243Z,19.88
2022-10-18T02:46:52.900Z,19.77
2022-10-18T02:49:19.250Z,19.08
2022-10-18T02:51:45.632Z,18.15
2022-10-18T02:54:11.965Z,15.00
2022-10-18T02:56:38.366Z,18.27
2022-10-18T02:59:07.300Z,13.63
2022-10-18T03:01:35.970Z,18.30
2022-10-18T03:04:04.031Z,15.82
2022-10-18T03:06:31.031Z,18.50
2022-10-18T03:08:57.559Z,15.35
2022-10-18T03:11:24.121Z,16.20
2022-10-18T03:13:51.136Z,15.02
2022-10-18T03:16:17.928Z,13.75
2022-10-18T03:18:44.365Z,15.13
2022-10-18T03:21:10.851Z,12.02
2022-10-18T03:23:37.221Z,11.68
2022-10-18T03:26:03.640Z,12.75
2022-10-18T03:28:30.113Z,14.23
2022-10-18T03:31:01.524Z,12.50
2022-10-18T03:33:28.535Z,12.70
2022-10-18T03:35:54.924Z,13.73
2022-10-18T03:38:21.332Z,11.75
2022-10-18T03:40:47.646Z,14.55
2022-10-18T03:43:14.022Z,11.88
2022-10-18T03:45:40.703Z,11.07
2022-10-18T03:48:07.191Z,12.35
2022-10-18T03:50:33.568Z,18.25
2022-10-18T03:52:59.937Z,11.15
2022-10-18T03:55:26.398Z,13.55
2022-10-18T03:57:52.832Z,12.02
2022-10-18T04:00:19.326Z,10.95
2022-10-18T04:02:45.677Z,16.33
2022-10-18T04:05:12.945Z,15.75
2022-10-18T04:07:39.266Z,10.77
2022-10-18T04:10:06.445Z,12.23
2022-10-18T04:12:33.254Z,13.02
2022-10-18T04:14:59.822Z,10.02
2022-10-18T04:17:26.208Z,10.70
2022-10-18T04:19:52.721Z,15.93
2022-10-18T04:22:20.434Z,9.90
2022-10-18T04:24:47.336Z,11.68
2022-10-18T04:27:13.695Z,13.02
2022-10-18T04:29:40.034Z,9.10
2022-10-18T04:32:06.494Z,11.60
2022-10-18T04:34:32.969Z,13.13
2022-10-18T04:36:59.388Z,12.98
2022-10-18T04:39:25.817Z,11.38
2022-10-18T04:41:52.163Z,15.15
2022-10-18T04:44:18.746Z,16.95
2022-10-18T04:46:45.212Z,14.00
2022-10-18T04:49:11.606Z,17.20
2022-10-18T04:51:38.025Z,14.68
2022-10-18T04:54:04.475Z,13.75
2022-10-18T04:56:30.898Z,12.25
2022-10-18T04:58:58.707Z,13.40
2022-10-18T05:01:25.462Z,14.07
2022-10-18T05:03:54.050Z,13.15
2022-10-18T05:06:21.119Z,18.95
2022-10-18T05:08:47.714Z,15.35
2022-10-18T05:11:14.561Z,15.35
2022-10-18T05:13:40.884Z,18.40
2022-10-18T05:16:07.287Z,20.08
2022-10-18T05:18:33.691Z,14.07
2022-10-18T05:21:00.018Z,17.02
2022-10-18T05:23:26.346Z,18.25
2022-10-18T05:25:52.894Z,16.88
2022-10-18T05:28:39.776Z,15.63
2022-10-18T05:31:07.182Z,24.15
2022-10-18T05:33:33.947Z,17.38
2022-10-18T05:36:00.404Z,19.10
2022-10-18T05:38:27.017Z,16.13
2022-10-18T05:40:53.446Z,14.90
2022-10-18T05:43:19.823Z,16.08
2022-10-18T05:45:50.607Z,18.42
2022-10-18T05:48:17.430Z,16.65
2022-10-18T05:50:44.540Z,15.93
2022-10-18T05:53:18.557Z,17.67
2022-10-18T05:56:03.748Z,17.02
2022-10-18T05:58:30.162Z,19.83
2022-10-18T06:01:01.118Z,19.50
2022-10-18T06:03:28.453Z,15.45
2022-10-18T06:06:00.235Z,19.33
2022-10-18T06:08:27.045Z,14.18
2022-10-18T06:10:53.424Z,18.13
2022-10-18T06:13:19.860Z,15.82
2022-10-18T06:15:46.480Z,16.40
2022-10-18T06:18:13.009Z,17.83
2022-10-18T06:20:39.362Z,20.15
2022-10-18T06:23:06.577Z,18.70
2022-10-18T06:25:32.917Z,20.95
2022-10-18T06:27:59.408Z,16.80
2022-10-18T06:30:25.735Z,16.95
2022-10-18T06:32:52.107Z,17.45
2022-10-18T06:35:18.480Z,22.52
2022-10-18T06:37:44.807Z,17.65
2022-10-18T06:40:11.350Z,28.75
2022-10-18T06:42:37.766Z,18.17
2022-10-18T06:45:04.426Z,16.10
2022-10-18T06:47:30.776Z,14.15
2022-10-18T06:49:57.129Z,15.55
2022-10-18T06:52:25.637Z,17.92
2022-10-18T06:54:52.724Z,19.77
2022-10-18T06:57:20.597Z,11.32
2022-10-18T06:59:47.104Z,12.57
2022-10-18T07:02:16.950Z,16.10
2022-10-18T07:04:43.496Z,14.95
2022-10-18T07:07:09.819Z,15.88
2022-10-18T07:09:36.235Z,17.63
2022-10-18T07:12:02.638Z,18.83
2022-10-18T07:14:29.318Z,21.88
2022-10-18T07:16:59.193Z,16.88
2022-10-18T07:19:25.654Z,16.73
2022-10-18T07:21:52.047Z,19.08
2022-10-18T07:24:18.404Z,18.50
2022-10-18T07:26:44.878Z,19.63
2022-10-18T07:29:12.316Z,18.08
2022-10-18T07:31:39.067Z,19.02
2022-10-18T07:34:06.869Z,18.75
2022-10-18T07:36:34.275Z,19.63
2022-10-18T07:39:00.692Z,20.15
2022-10-18T07:41:27.141Z,27.25
2022-10-18T07:43:53.925Z,26.35
2022-10-18T07:46:21.779Z,21.42
2022-10-18T07:48:48.494Z,22.25
2022-10-18T07:51:14.910Z,23.90
2022-10-18T07:53:41.576Z,24.95
2022-10-18T07:56:15.781Z,19.30
2022-10-18T07:58:45.931Z,18.70
2022-10-18T08:01:13.619Z,23.02
2022-10-18T08:03:41.509Z,21.70
2022-10-18T08:06:09.574Z,17.52
2022-10-18T08:08:38.394Z,23.33
2022-10-18T08:11:08.192Z,19.40
2022-10-18T08:13:34.675Z,21.52
2022-10-18T08:16:02.990Z,21.73
2022-10-18T08:18:29.431Z,19.98
2022-10-18T08:20:55.874Z,22.65
2022-10-18T08:23:22.231Z,20.70
2022-10-18T08:25:48.657Z,18.02
2022-10-18T08:28:15.021Z,20.33
2022-10-18T08:30:41.410Z,24.85
2022-10-18T08:33:07.727Z,20.15
2022-10-18T08:35:34.081Z,22.40
2022-10-18T08:38:00.822Z,21.13
2022-10-18T08:40:27.867Z,21.88
2022-10-18T08:43:03.087Z,23.27
2022-10-18T08:45:41.944Z,23.80
2022-10-18T08:48:21.797Z,21.05
2022-10-18T08:50:49.298Z,22.42
2022-10-18T08:53:33.100Z,17.98
2022-10-18T08:56:14.717Z,19.60
2022-10-18T08:58:43.988Z,17.17
2022-10-18T09:01:13.026Z,18.58
2022-10-18T09:03:54.635Z,22.23
2022-10-18T09:06:35.587Z,19.70
2022-10-18T09:09:32.769Z,22.80
2022-10-18T09:12:26.808Z,16.77
2022-10-18T09:15:08.634Z,25.02
2022-10-18T09:17:50.114Z,25.55
2022-10-18T09:20:22.023Z,20.60
2022-10-18T09:22:54.570Z,19.13
2022-10-18T09:25:28.521Z,17.35
2022-10-18T09:28:28.671Z,21.05
2022-10-18T09:31:12.395Z,16.95
2022-10-18T09:33:58.119Z,17.98
2022-10-18T09:36:27.961Z,20.35
2022-10-18T09:39:00.499Z,16.25
2022-10-18T09:41:57.842Z,22.95
2022-10-18T09:44:28.056Z,17.92
2022-10-18T09:47:24.765Z,18.95
2022-10-18T09:49:56.702Z,20.95
2022-10-18T09:52:35.635Z,17.20
2022-10-18T09:55:13.284Z,23.30
2022-10-18T09:57:44.818Z,16.70
2022-10-18T10:00:18.660Z,16.40
2022-10-18T10:02:45.097Z,15.13
2022-10-18T10:05:15.382Z,16.05
2022-10-18T10:07:44.040Z,14.75
2022-10-18T10:10:20.922Z,13.00
2022-10-18T10:12:48.445Z,12.73
2022-10-18T10:15:29.579Z,15.30
2022-10-18T10:18:19.291Z,16.95
2022-10-18T10:20:50.257Z,13.48
2022-10-18T10:23:26.055Z,16.90
2022-10-18T10:26:27.461Z,14.27
2022-10-18T10:28:53.963Z,15.70
2022-10-18T10:31:29.282Z,14.48
2022-10-18T10:34:05.691Z,13.90
2022-10-18T10:36:34.158Z,11.90
2022-10-18T10:39:12.484Z,14.00
2022-10-18T10:41:41.314Z,17.67
2022-10-18T10:44:20.097Z,18.10
2022-10-18T10:46:49.315Z,11.57
2022-10-18T10:49:39.624Z,12.13
2022-10-18T10:52:09.035Z,13.35
2022-10-18T10:54:52.139Z,14.07
2022-10-18T10:57:19.008Z,11.45
2022-10-18T10:59:45.547Z,11.10
2022-10-18T11:02:15.259Z,15.55
2022-10-18T11:04:42.651Z,14.85
2022-10-18T11:07:08.965Z,17.48
2022-10-18T11:09:55.938Z,14.57
2022-10-18T11:12:38.316Z,13.00
2022-10-18T11:15:11.939Z,15.68
2022-10-18T11:18:07.998Z,15.98
2022-10-18T11:20:41.747Z,13.10
2022-10-18T11:23:12.354Z,17.45
2022-10-18T11:25:57.638Z,17.55
2022-10-18T11:28:36.335Z,19.23
2022-10-18T11:31:42.232Z,16.17
2022-10-18T11:34:41.993Z,20.88
2022-10-18T11:37:29.435Z,21.35
2022-10-18T11:40:29.280Z,16.35
2022-10-18T11:43:24.778Z,19.65
2022-10-18T11:46:08.104Z,16.27
2022-10-18T11:48:49.400Z,17.77
2022-10-18T11:52:07.125Z,21.35
2022-10-18T11:54:49.468Z,16.10
2022-10-18T11:57:37.618Z,15.18
2022-10-18T12:00:40.497Z,15.13
2022-10-18T12:03:26.997Z,16.45
2022-10-18T12:05:57.129Z,18.33
2022-10-18T12:08:44.031Z,19.38
2022-10-18T12:11:17.866Z,18.63
2022-10-18T12:13:52.084Z,17.23
2022-10-18T12:16:38.920Z,18.33
2022-10-18T12:19:23.310Z,23.45
2022-10-18T12:21:53.803Z,21.67
2022-10-18T12:24:24.796Z,20.85
2022-10-18T12:26:56.947Z,21.67
2022-10-18T12:29:50.440Z,22.02
2022-10-18T12:32:24.699Z,16.90
2022-10-18T12:35:02.824Z,21.00
2022-10-18T12:37:57.325Z,19.05
2022-10-18T12:40:46.540Z,16.38
2022-10-18T12:43:21.151Z,17.40
2022-10-18T12:45:56.951Z,16.35
2022-10-18T12:48:32.787Z,17.58
2022-10-18T12:51:19.895Z,22.05
2022-10-18T12:53:49.551Z,19.63
2022-10-18T12:56:27.835Z,17.55
2022-10-18T12:59:15.935Z,15.13
2022-10-18T13:01:51.912Z,17.45
2022-10-18T13:04:45.361Z,14.52
2022-10-18T13:07:19.745Z,13.45
2022-10-18T13:10:35.160Z,15.70
2022-10-18T13:13:39.155Z,12.57
2022-10-18T13:16:22.419Z,11.00
2022-10-18T13:18:53.491Z,15.25
2022-10-18T13:21:47.921Z,13.23
2022-10-18T13:24:26.150Z,15.38
2022-10-18T13:27:31.383Z,16.98
2022-10-18T13:30:24.433Z,11.38
2022-10-18T13:32:58.314Z,12.60
2022-10-18T13:35:48.666Z,19.83
2022-10-18T13:38:30.613Z,14.82
2022-10-18T13:41:21.341Z,15.23
2022-10-18T13:43:53.963Z,15.15
2022-10-18T13:46:22.240Z,11.63
2022-10-18T13:48:50.637Z,20.17
2022-10-18T13:51:43.259Z,12.30
2022-10-18T13:54:15.136Z,12.70
2022-10-18T13:57:03.538Z,15.77
2022-10-18T13:59:46.877Z,13.85
2022-10-18T14:02:51.443Z,13.68
2022-10-18T14:05:41.280Z,10.48
2022-10-18T14:08:27.918Z,16.55
2022-10-18T14:11:05.900Z,13.00
2022-10-18T14:13:55.947Z,13.98
2022-10-18T14:16:37.120Z,16.10
2022-10-18T14:19:22.143Z,14.48
2022-10-18T14:22:04.046Z,14.90
2022-10-18T14:24:31.007Z,13.52
2022-10-18T14:27:16.440Z,15.98
2022-10-18T14:29:43.379Z,12.43
2022-10-18T14:32:19.779Z,12.32
2022-10-18T14:34:46.631Z,11.27
2022-10-18T14:37:29.075Z,14.07
2022-10-18T14:39:55.787Z,11.70
2022-10-18T14:42:25.489Z,11.68
2022-10-18T14:44:54.423Z,16.80
2022-10-18T14:47:27.989Z,15.52
2022-10-18T14:49:54.749Z,12.05
2022-10-18T14:52:30.465Z,12.48
2022-10-18T14:55:00.388Z,12.52
2022-10-18T14:57:33.747Z,15.43
2022-10-18T15:00:04.827Z,15.63
2022-10-18T15:02:35.528Z,14.55
2022-10-18T15:05:08.938Z,14.93
2022-10-18T15:07:35.978Z,16.23
2022-10-18T15:10:04.362Z,18.65
2022-10-18T15:12:36.923Z,13.88
2022-10-18T15:15:13.719Z,13.98
2022-10-18T15:17:40.801Z,15.45
2022-10-18T15:20:25.886Z,16.52
2022-10-18T15:22:53.524Z,19.88
2022-10-18T15:25:29.331Z,17.60
2022-10-18T15:27:59.379Z,18.30
2022-10-18T15:30:28.159Z,17.63
2022-10-18T15:32:57.346Z,15.50
2022-10-18T15:35:29.821Z,13.60
2022-10-18T15:38:00.090Z,16.85
2022-10-18T15:40:35.242Z,21.42
2022-10-18T15:43:26.243Z,21.10
2022-10-18T15:45:52.767Z,22.17
2022-10-18T15:48:28.412Z,16.52
2022-10-18T15:50:57.102Z,22.02
2022-10-18T15:53:30.355Z,15.32
2022-10-18T15:56:02.724Z,18.40
2022-10-18T15:58:51.237Z,13.85
2022-10-18T16:01:21.942Z,17.67
2022-10-18T16:03:50.558Z,14.68
2022-10-18T16:06:18.400Z,12.95
2022-10-18T16:08:51.062Z,12.70
2022-10-18T16:11:23.301Z,21.90
2022-10-18T16:13:50.418Z,29.27
2022-10-18T16:16:22.588Z,29.95
2022-10-18T16:18:49.830Z,24.83
2022-10-18T16:21:22.108Z,19.42
2022-10-18T16:23:49.243Z,16.58
2022-10-18T16:26:16.853Z,22.08
2022-10-18T16:28:44.526Z,16.33
2022-10-18T16:31:19.155Z,19.65
2022-10-18T16:33:46.557Z,17.85
2022-10-18T16:36:15.327Z,14.07
2022-10-18T16:38:42.795Z,16.77
2022-10-18T16:41:10.371Z,16.70
2022-10-18T16:43:37.882Z,11.52
2022-10-18T16:46:05.007Z,23.52
2022-10-18T16:48:31.645Z,18.98
2022-10-18T16:50:58.688Z,17.17
2022-10-18T16:53:26.042Z,23.42
2022-10-18T16:55:59.699Z,18.83
2022-10-18T16:58:31.567Z,20.52
2022-10-18T17:00:59.819Z,21.75
2022-10-18T17:03:28.142Z,26.27
2022-10-18T17:05:54.584Z,15.73
2022-10-18T17:08:28.337Z,15.95
2022-10-18T17:10:57.701Z,24.10
2022-10-18T17:13:25.722Z,22.70
2022-10-18T17:15:53.711Z,21.55
2022-10-18T17:18:28.026Z,19.08
2022-10-18T17:20:54.859Z,21.77
2022-10-18T17:23:21.406Z,18.75
2022-10-18T17:25:59.180Z,31.13
2022-10-18T17:28:33.613Z,35.92
2022-10-18T17:31:00.219Z,21.83
2022-10-18T17:33:27.133Z,21.42
2022-10-18T17:35:53.813Z,22.42
2022-10-18T17:38:20.459Z,24.38
2022-10-18T17:40:47.070Z,27.08
2022-10-18T17:43:13.928Z,17.10
2022-10-18T17:45:51.043Z,34.13
2022-10-18T17:48:17.829Z,23.52
2022-10-18T17:50:44.329Z,29.85
2022-10-18T17:53:12.007Z,28.20
2022-10-18T17:55:39.182Z,23.80
2022-10-18T17:58:06.118Z,21.48
2022-10-18T18:00:32.782Z,28.63
2022-10-18T18:03:00.555Z,26.73
2022-10-18T18:05:31.034Z,21.85
2022-10-18T18:08:02.728Z,24.42
2022-10-18T18:10:32.633Z,26.20
2022-10-18T18:12:59.025Z,22.08
2022-10-18T18:15:25.418Z,31.17
2022-10-18T18:17:58.888Z,21.83
2022-10-18T18:20:26.469Z,28.70
2022-10-18T18:22:53.056Z,20.27
2022-10-18T18:25:19.560Z,24.77
2022-10-18T18:27:45.934Z,18.75
2022-10-18T18:30:12.529Z,25.15
2022-10-18T18:32:38.946Z,19.77
2022-10-18T18:35:05.718Z,18.88
2022-10-18T18:37:32.214Z,15.48
2022-10-18T18:39:58.539Z,20.17
2022-10-18T18:42:24.984Z,21.85
2022-10-18T18:44:51.329Z,18.45
2022-10-18T18:47:21.205Z,15.93
2022-10-18T18:49:47.568Z,18.95
2022-10-18T18:52:13.985Z,29.00
2022-10-18T18:54:40.291Z,20.90
2022-10-18T18:57:06.707Z,22.52
2022-10-18T18:59:33.174Z,28.77
2022-10-18T19:01:59.544Z,22.65
2022-10-18T19:04:26.235Z,28.45
2022-10-18T19:06:52.643Z,19.88
2022-10-18T19:09:21.506Z,17.25
2022-10-18T19:11:53.360Z,29.65
2022-10-18T19:16:53.621Z,25.20
2022-10-18T19:19:24.816Z,22.50
2022-10-18T19:21:53.987Z,29.10
2022-10-18T19:24:23.507Z,18.15
2022-10-18T19:26:58.271Z,27.75
2022-10-18T19:29:27.280Z,22.92
2022-10-18T19:31:55.962Z,19.98
2022-10-18T19:34:24.814Z,22.55
2022-10-18T19:36:51.539Z,17.77
2022-10-18T19:39:29.242Z,20.95
2022-10-18T19:41:59.389Z,18.88
2022-10-18T19:44:29.034Z,18.60
2022-10-18T19:46:55.666Z,20.50
2022-10-18T19:49:22.021Z,18.08
2022-10-18T19:51:48.982Z,24.13
2022-10-18T19:54:15.969Z,21.30
2022-10-18T19:56:43.154Z,17.38
2022-10-18T19:59:11.175Z,20.17
2022-10-18T20:01:37.853Z,17.50
2022-10-18T20:04:04.530Z,16.90
2022-10-18T20:06:31.789Z,18.35
2022-10-18T20:08:58.649Z,14.95
2022-10-18T20:11:27.911Z,18.55
2022-10-18T20:13:55.335Z,16.85
2022-10-18T20:16:28.071Z,17.40
2022-10-18T20:19:07.518Z,17.77
2022-10-18T20:21:35.917Z,12.25
2022-10-18T20:24:04.123Z,22.20
2022-10-18T20:26:30.470Z,14.60
2022-10-18T20:28:57.853Z,13.32
2022-10-18T20:31:27.618Z,15.52
2022-10-18T20:33:56.608Z,19.42
2022-10-18T20:36:23.977Z,11.90
2022-10-18T20:38:50.431Z,21.05
2022-10-18T20:41:20.137Z,14.95
2022-10-18T20:43:58.293Z,16.42
2022-10-18T20:46:25.269Z,11.77
2022-10-18T20:48:53.506Z,14.45
2022-10-18T20:51:21.425Z,13.07
2022-10-18T20:53:48.566Z,13.77
2022-10-18T20:56:20.707Z,13.32
2022-10-18T20:58:48.733Z,9.38
2022-10-18T21:01:20.782Z,18.20
2022-10-18T21:03:49.068Z,15.85
2022-10-18T21:06:18.350Z,16.50
2022-10-18T21:08:45.373Z,17.15
2022-10-18T21:11:13.035Z,13.70
2022-10-18T21:13:40.913Z,15.23
2022-10-18T21:16:07.756Z,15.43
2022-10-18T21:18:36.040Z,11.35
2022-10-18T21:21:20.662Z,18.05
2022-10-18T21:23:47.566Z,21.60
2022-10-18T21:26:27.423Z,15.23
2022-10-18T21:28:57.714Z,17.95
2022-10-18T21:31:26.657Z,18.25
2022-10-18T21:33:58.242Z,16.48
2022-10-18T21:36:25.317Z,15.90
2022-10-18T21:38:52.092Z,12.25
2022-10-18T21:41:19.682Z,16.52
2022-10-18T21:43:48.542Z,15.38
2022-10-18T21:46:16.174Z,14.77
2022-10-18T21:48:48.161Z,20.30
2022-10-18T21:51:17.620Z,20.95
2022-10-18T21:53:46.046Z,20.70
2022-10-18T21:56:15.495Z,11.50
2022-10-18T21:58:42.502Z,17.33
2022-10-18T22:01:26.691Z,14.82
2022-10-18T22:03:55.229Z,21.07
2022-10-18T22:06:22.935Z,13.55
2022-10-18T22:08:51.818Z,18.98
2022-10-18T22:11:22.376Z,12.83
2022-10-18T22:13:49.168Z,10.33
2022-10-18T22:16:16.871Z,14.07
2022-10-18T22:18:45.110Z,17.23
2022-10-18T22:21:13.374Z,13.38
2022-10-18T22:23:45.493Z,13.07
2022-10-18T22:26:15.493Z,19.03
2022-10-18T22:28:43.506Z,12.30
2022-10-18T22:31:15.140Z,17.27
2022-10-18T22:33:41.564Z,14.75
2022-10-18T22:36:08.117Z,14.93
2022-10-18T22:38:35.025Z,10.15
2022-10-18T22:41:09.443Z,15.38
2022-10-18T22:43:36.406Z,10.13
2022-10-18T22:46:04.657Z,9.98
2022-10-18T22:48:31.730Z,21.33
2022-10-18T22:50:58.094Z,11.45
2022-10-18T22:53:24.550Z,12.57
2022-10-18T22:55:51.585Z,22.50
2022-10-18T22:58:18.879Z,15.07
2022-10-18T23:00:45.670Z,9.50
2022-10-18T23:03:15.690Z,10.68
2022-10-18T23:05:43.999Z,9.63
2022-10-18T23:08:12.680Z,16.20
2022-10-18T23:10:41.421Z,14.13
2022-10-18T23:13:08.781Z,12.50
2022-10-18T23:15:35.456Z,16.38
2022-10-18T23:18:02.180Z,13.15
2022-10-18T23:20:28.681Z,8.50
2022-10-18T23:22:55.279Z,12.45
2022-10-18T23:25:21.652Z,8.98
2022-10-18T23:27:48.014Z,9.98
2022-10-18T23:30:14.387Z,6.95
2022-10-18T23:32:40.697Z,9.98
2022-10-18T23:35:07.338Z,7.45
2022-10-18T23:37:34.015Z,13.18
2022-10-18T23:40:00.640Z,7.88
2022-10-18T23:42:27.030Z,5.45
2022-10-18T23:44:53.337Z,14.05
2022-10-18T23:47:19.744Z,8.45
2022-10-18T23:49:46.095Z,6.50
2022-10-18T23:52:12.467Z,10.00
2022-10-18T23:54:38.850Z,13.05
2022-10-18T23:57:05.234Z,9.95
2022-10-18T23:59:31.549Z,8.90
